createdAt,value
2019-05-02T00:03:05.816Z,15.00
2019-05-02T00:11:27.349Z,14.80
2019-05-02T00:15:37.847Z,15.40
2019-05-02T00:19:45.014Z,15.00
2019-05-02T00:23:48.255Z,14.60
2019-05-02T00:27:54.068Z,14.40
2019-05-02T00:31:59.781Z,14.30
2019-05-02T00:36:05.580Z,14.70
2019-05-02T00:40:11.588Z,15.10
2019-05-02T00:44:17.285Z,15.30
2019-05-02T00:48:42.727Z,15.10
2019-05-02T00:52:48.487Z,14.60
2019-05-02T00:56:54.217Z,14.30
2019-05-02T01:01:19.537Z,14.20
2019-05-02T01:05:25.468Z,14.30
2019-05-02T01:09:32.595Z,14.60
2019-05-02T01:13:38.370Z,14.40
2019-05-02T01:17:44.038Z,14.40
2019-05-02T01:21:49.718Z,14.20
2019-05-02T01:25:55.487Z,13.90
2019-05-02T01:30:15.711Z,13.70
2019-05-02T01:34:34.924Z,13.60
2019-05-02T01:38:45.342Z,13.60
2019-05-02T01:42:51.143Z,14.00
2019-05-02T01:46:58.765Z,13.90
2019-05-02T01:51:10.064Z,13.70
2019-05-02T01:55:11.968Z,13.50
2019-05-02T01:59:17.649Z,13.50
2019-05-02T02:03:23.339Z,13.50
2019-05-02T02:07:29.030Z,13.50
2019-05-02T02:11:35.854Z,13.40
2019-05-02T02:15:41.730Z,13.40
2019-05-02T02:19:49.021Z,13.60
2019-05-02T02:24:02.367Z,13.40
2019-05-02T02:28:08.254Z,13.20
2019-05-02T02:32:20.345Z,13.40
2019-05-02T02:36:31.370Z,13.60
2019-05-02T02:40:33.661Z,13.70
2019-05-02T02:44:41.979Z,13.70
2019-05-02T02:48:47.700Z,13.20
2019-05-02T02:52:53.388Z,13.00
2019-05-02T02:56:59.083Z,12.90
2019-05-02T03:01:05.388Z,12.80
2019-05-02T03:05:11.266Z,12.90
2019-05-02T03:09:20.126Z,12.80
2019-05-02T03:13:24.367Z,12.80
2019-05-02T03:17:30.038Z,12.70
2019-05-02T03:21:35.844Z,13.00
2019-05-02T03:25:50.562Z,13.70
2019-05-02T03:29:51.528Z,14.10
2019-05-02T03:34:00.829Z,14.30
2019-05-02T03:38:05.153Z,14.20
2019-05-02T03:42:11.049Z,14.10
2019-05-02T03:46:20.706Z,14.20
2019-05-02T03:50:32.375Z,14.50
2019-05-02T03:54:32.547Z,14.30
2019-05-02T03:58:38.526Z,14.30
2019-05-02T04:02:44.970Z,14.40
2019-05-02T04:06:55.055Z,14.20
2019-05-02T04:11:20.965Z,14.20
2019-05-02T04:15:28.839Z,14.30
2019-05-02T04:19:35.259Z,14.20
2019-05-02T04:23:42.865Z,14.30
2019-05-02T04:27:49.169Z,14.30
2019-05-02T04:31:54.881Z,14.10
2019-05-02T04:36:00.633Z,14.00
2019-05-02T04:40:11.989Z,14.10
2019-05-02T04:44:15.288Z,14.30
2019-05-02T04:48:20.981Z,14.40
2019-05-02T04:52:28.823Z,14.40
2019-05-02T04:56:42.121Z,14.60
2019-05-02T05:00:45.130Z,14.60
2019-05-02T05:04:49.566Z,14.70
2019-05-02T05:08:58.484Z,14.80
2019-05-02T05:13:03.625Z,14.90
2019-05-02T05:17:09.386Z,14.90
2019-05-02T05:21:17.618Z,15.10
2019-05-02T05:25:30.180Z,15.10
2019-05-02T05:29:37.477Z,15.20
2019-05-02T05:33:43.175Z,15.40
2019-05-02T05:37:52.899Z,15.50
2019-05-02T05:41:57.822Z,15.50
2019-05-02T05:46:12.312Z,15.50
2019-05-02T05:50:11.153Z,15.50
2019-05-02T05:54:17.827Z,15.60
2019-05-02T05:58:23.703Z,15.50
2019-05-02T06:02:29.379Z,15.70
2019-05-02T06:06:35.134Z,16.10
2019-05-02T06:10:43.903Z,16.40
2019-05-02T06:14:48.200Z,16.50
2019-05-02T06:18:54.160Z,16.40
2019-05-02T06:23:01.275Z,16.50
2019-05-02T06:27:07.060Z,16.80
2019-05-02T06:31:16.695Z,17.10
2019-05-02T06:35:22.401Z,17.30
2019-05-02T06:39:32.005Z,17.50
2019-05-02T06:43:36.504Z,17.80
2019-05-02T06:47:43.606Z,18.10
2019-05-02T06:51:50.989Z,18.40
2019-05-02T06:55:56.708Z,18.60
2019-05-02T07:00:02.615Z,18.70
2019-05-02T07:04:10.255Z,18.90
2019-05-02T07:08:16.112Z,19.30
2019-05-02T07:12:21.959Z,19.60
2019-05-02T07:16:38.407Z,19.80
2019-05-02T07:20:40.499Z,20.00
2019-05-02T07:24:44.215Z,20.20
2019-05-02T07:28:51.022Z,20.40
2019-05-02T07:33:01.157Z,20.70
2019-05-02T07:37:08.464Z,20.90
2019-05-02T07:41:12.149Z,21.30
2019-05-02T07:45:18.187Z,21.50
2019-05-02T07:49:26.603Z,21.60
2019-05-02T07:53:31.248Z,22.00
2019-05-02T07:57:36.955Z,22.40
2019-05-02T08:01:44.891Z,22.50
2019-05-02T08:05:54.432Z,22.60
2019-05-02T08:09:57.546Z,22.80
2019-05-02T08:14:03.319Z,23.00
2019-05-02T08:18:09.181Z,23.40
2019-05-02T08:22:15.064Z,23.70
2019-05-02T08:26:21.732Z,24.00
2019-05-02T08:30:29.779Z,24.20
2019-05-02T08:34:35.478Z,24.40
2019-05-02T08:38:41.186Z,24.80
2019-05-02T08:42:46.879Z,25.00
2019-05-02T08:46:53.285Z,24.00
2019-05-02T08:50:59.080Z,23.10
2019-05-02T08:55:09.733Z,22.50
2019-05-02T08:59:14.741Z,22.10
2019-05-02T09:03:20.515Z,21.70
2019-05-02T09:07:26.389Z,21.70
2019-05-02T09:11:32.054Z,21.80
2019-05-02T09:15:40.348Z,21.50
2019-05-02T09:19:59.176Z,22.70
2019-05-02T09:23:52.603Z,23.80
2019-05-02T09:27:58.300Z,25.00
2019-05-02T09:32:05.019Z,25.50
2019-05-02T09:36:11.894Z,25.70
2019-05-02T09:40:17.974Z,25.90
2019-05-02T09:44:23.666Z,25.30
2019-05-02T09:48:29.364Z,25.50
2019-05-02T09:52:39.592Z,25.50
2019-05-02T09:56:43.121Z,25.50
2019-05-02T10:00:56.256Z,25.60
2019-05-02T10:05:02.028Z,26.50
2019-05-02T10:09:11.918Z,27.30
2019-05-02T10:13:17.290Z,27.80
2019-05-02T10:17:28.791Z,28.50
2019-05-02T10:21:34.687Z,29.00
2019-05-02T10:26:20.086Z,29.30
2019-05-02T10:30:25.637Z,29.00
2019-05-02T10:34:32.975Z,28.50
2019-05-02T10:38:38.825Z,26.60
2019-05-02T10:42:44.531Z,25.30
2019-05-02T10:46:57.741Z,26.90
2019-05-02T10:51:25.587Z,28.70
2019-05-02T10:55:28.600Z,29.10
2019-05-02T10:59:34.290Z,27.60
2019-05-02T11:03:47.434Z,26.20
2019-05-02T11:07:52.361Z,25.20
2019-05-02T11:12:02.576Z,24.60
2019-05-02T11:16:15.441Z,25.10
2019-05-02T11:24:44.437Z,26.70
2019-05-02T11:28:52.001Z,28.00
2019-05-02T11:32:58.778Z,28.00
2019-05-02T11:37:04.731Z,27.00
2019-05-02T11:41:11.924Z,25.90
2019-05-02T11:45:17.795Z,25.10
2019-05-02T11:49:23.530Z,25.00
2019-05-02T11:53:29.650Z,25.80
2019-05-02T11:57:35.382Z,25.50
2019-05-02T12:01:42.729Z,25.90
2019-05-02T12:05:49.443Z,26.90
2019-05-02T12:14:48.976Z,25.80
2019-05-02T12:19:08.190Z,26.70
2019-05-02T12:23:02.228Z,27.50
2019-05-02T12:27:08.057Z,26.60
2019-05-02T12:31:22.160Z,25.80
2019-05-02T12:35:27.818Z,25.30
2019-05-02T12:39:33.513Z,24.90
2019-05-02T12:43:39.204Z,24.80
2019-05-02T12:47:45.128Z,25.00
2019-05-02T12:51:52.437Z,24.70
2019-05-02T12:55:58.325Z,24.80
2019-05-02T13:00:08.146Z,25.20
2019-05-02T13:04:14.314Z,25.00
2019-05-02T13:08:21.921Z,26.00
2019-05-02T13:12:29.085Z,27.90
2019-05-02T13:16:34.796Z,29.00
2019-05-02T13:20:41.740Z,28.90
2019-05-02T13:24:54.961Z,28.20
2019-05-02T13:28:59.657Z,27.90
2019-05-02T13:33:07.154Z,28.70
2019-05-02T13:42:18.359Z,28.50
2019-05-02T13:46:26.764Z,27.90
2019-05-02T13:50:31.831Z,27.10
2019-05-02T13:54:38.360Z,27.10
2019-05-02T13:58:44.015Z,28.30
2019-05-02T14:02:51.886Z,27.80
2019-05-02T14:06:57.309Z,26.20
2019-05-02T14:11:05.524Z,25.80
2019-05-02T14:15:13.834Z,26.30
2019-05-02T14:19:19.654Z,27.90
2019-05-02T14:23:27.102Z,28.50
2019-05-02T14:27:32.920Z,28.20
2019-05-02T14:31:38.609Z,27.80
2019-05-02T14:35:46.363Z,28.00
2019-05-02T14:39:53.698Z,26.00
2019-05-02T14:43:59.466Z,25.20
2019-05-02T14:48:18.416Z,24.20
2019-05-02T14:52:13.027Z,24.20
2019-05-02T17:37:22.675Z,17.10
2019-05-02T17:41:28.350Z,17.20
2019-05-02T17:45:38.491Z,17.10
2019-05-02T17:49:42.309Z,16.80
2019-05-02T17:53:57.248Z,16.60
2019-05-02T17:58:04.570Z,17.10
2019-05-02T18:02:12.442Z,16.90
2019-05-02T18:06:30.110Z,17.00
2019-05-02T18:10:25.678Z,17.10
2019-05-02T18:14:31.355Z,17.20
2019-05-02T18:18:46.746Z,17.10
2019-05-02T18:22:51.939Z,17.00
2019-05-02T18:26:57.888Z,17.10
2019-05-02T18:31:05.832Z,17.40
2019-05-02T18:35:12.712Z,17.60
2019-05-02T18:39:18.555Z,17.80
2019-05-02T18:43:24.305Z,17.80
2019-05-02T18:47:30.002Z,17.80
2019-05-02T18:51:35.746Z,17.50
2019-05-02T18:55:42.205Z,17.30
2019-05-02T18:59:52.080Z,16.90
2019-05-02T19:03:56.684Z,17.30
2019-05-02T19:08:02.677Z,17.50
2019-05-02T19:12:41.913Z,17.30
2019-05-02T19:16:47.540Z,17.30
2019-05-02T19:23:22.603Z,17.40
2019-05-02T19:27:30.095Z,17.40
2019-05-02T19:31:44.332Z,16.80
2019-05-02T19:35:46.938Z,16.40
2019-05-02T19:44:11.941Z,16.30
2019-05-02T19:48:22.850Z,16.30
2019-05-02T19:52:38.608Z,16.10
2019-05-02T19:56:52.384Z,16.10
2019-05-02T20:00:57.959Z,16.20
2019-05-02T20:05:04.293Z,16.20
2019-05-02T20:09:10.617Z,16.20
2019-05-02T20:13:20.283Z,16.40
2019-05-02T20:17:33.146Z,16.60
2019-05-02T20:22:24.349Z,16.20
2019-05-02T20:26:32.391Z,15.90
2019-05-02T20:30:38.042Z,15.70
2019-05-02T20:34:43.752Z,16.00
2019-05-02T20:38:49.543Z,16.20
2019-05-02T20:42:55.843Z,16.30
2019-05-02T20:47:02.563Z,15.90
2019-05-02T20:51:08.333Z,15.70
2019-05-02T20:55:14.597Z,15.50
2019-05-02T20:59:21.815Z,15.70
2019-05-02T21:03:27.684Z,15.90
2019-05-02T21:07:42.300Z,15.70
2019-05-02T21:11:49.829Z,15.70
2019-05-02T21:15:56.072Z,15.40
2019-05-02T21:20:02.046Z,15.20
2019-05-02T21:24:07.916Z,15.50
2019-05-02T21:28:13.618Z,15.30
2019-05-02T21:32:19.313Z,15.00
2019-05-02T21:36:25.972Z,15.00
2019-05-02T21:40:32.694Z,15.20
2019-05-02T21:44:38.542Z,15.10
2019-05-02T21:48:44.297Z,15.20
2019-05-02T21:53:07.307Z,15.00
2019-05-02T21:57:14.640Z,15.40
2019-05-02T22:01:22.228Z,15.70
2019-05-02T22:05:27.989Z,15.10
2019-05-02T22:09:33.742Z,14.70
2019-05-02T22:13:39.433Z,14.30
2019-05-02T22:21:53.620Z,13.80
2019-05-02T22:25:59.363Z,13.60
2019-05-02T22:30:07.899Z,13.60
2019-05-02T22:34:13.581Z,13.60
2019-05-02T22:38:37.030Z,14.00
2019-05-02T22:42:42.856Z,14.00
2019-05-02T22:46:48.628Z,14.20
2019-05-02T22:50:54.337Z,14.90
2019-05-02T22:55:00.023Z,14.90
2019-05-02T22:59:06.822Z,15.00
2019-05-02T23:03:12.797Z,15.00
2019-05-02T23:07:18.491Z,14.90
2019-05-02T23:11:24.528Z,15.00
2019-05-02T23:15:31.991Z,15.30
2019-05-02T23:19:37.879Z,15.20
2019-05-02T23:23:43.589Z,14.50
2019-05-02T23:27:51.887Z,14.40
2019-05-02T23:31:57.597Z,14.20
2019-05-02T23:36:03.342Z,14.40
2019-05-02T23:40:09.359Z,14.70
2019-05-02T23:44:15.048Z,14.60
2019-05-02T23:48:22.072Z,14.70
2019-05-02T23:52:27.776Z,14.60
2019-05-02T23:56:33.609Z,15.00
